createdAt,value
2017-08-30T00:02:14.795Z,58.20
2017-08-30T00:04:47.996Z,58.40
2017-08-30T00:07:20.125Z,58.40
2017-08-30T00:09:53.558Z,58.50
2017-08-30T00:12:25.712Z,58.50
2017-08-30T00:15:06.308Z,59.20
2017-08-30T00:17:40.502Z,58.70
2017-08-30T00:20:14.080Z,58.80
2017-08-30T00:22:48.181Z,58.80
2017-08-30T00:25:21.804Z,58.50
2017-08-30T00:27:56.071Z,58.60
2017-08-30T00:30:28.032Z,58.60
2017-08-30T00:33:00.135Z,58.50
2017-08-30T00:35:31.775Z,58.70
2017-08-30T00:38:03.616Z,58.50
2017-08-30T00:40:35.990Z,58.60
2017-08-30T00:43:09.667Z,58.70
2017-08-30T00:45:44.395Z,58.70
2017-08-30T00:48:16.528Z,58.80
2017-08-30T00:50:48.319Z,59.00
2017-08-30T00:53:23.254Z,59.00
2017-08-30T00:56:00.898Z,59.00
2017-08-30T00:58:32.770Z,58.90
2017-08-30T01:01:04.701Z,59.00
2017-08-30T01:03:38.745Z,59.00
2017-08-30T01:06:10.055Z,59.00
2017-08-30T01:08:41.427Z,59.00
2017-08-30T01:11:12.509Z,59.00
2017-08-30T01:13:44.494Z,59.10
2017-08-30T01:16:16.856Z,59.30
2017-08-30T01:18:50.340Z,59.50
2017-08-30T01:23:59.311Z,59.10
2017-08-30T01:29:16.981Z,59.30
2017-08-30T01:31:48.659Z,59.10
2017-08-30T01:34:21.599Z,59.40
2017-08-30T01:36:56.104Z,59.30
2017-08-30T01:39:30.386Z,59.40
2017-08-30T01:42:05.286Z,59.50
2017-08-30T01:44:42.619Z,59.40
2017-08-30T01:47:15.593Z,59.40
2017-08-30T01:49:48.208Z,59.40
2017-08-30T01:52:21.773Z,59.60
2017-08-30T01:57:32.073Z,59.50
2017-08-30T02:00:03.261Z,59.90
2017-08-30T02:02:35.557Z,59.90
2017-08-30T02:05:07.695Z,59.80
2017-08-30T02:07:44.794Z,59.80
2017-08-30T02:12:53.122Z,59.80
2017-08-30T02:15:25.884Z,60.00
2017-08-30T02:17:57.785Z,60.20
2017-08-30T02:20:30.068Z,60.50
2017-08-30T02:23:01.896Z,60.60
2017-08-30T02:25:33.584Z,60.50
2017-08-30T02:28:10.287Z,61.00
2017-08-30T02:56:07.397Z,62.10
2017-08-30T02:58:40.031Z,62.30
2017-08-30T03:03:57.556Z,62.30
2017-08-30T03:06:30.435Z,62.40
2017-08-30T03:09:01.910Z,62.60
2017-08-30T03:11:32.766Z,62.50
2017-08-30T03:14:04.784Z,62.60
2017-08-30T03:16:36.274Z,62.80
2017-08-30T03:19:06.971Z,62.90
2017-08-30T03:21:41.108Z,62.70
2017-08-30T03:24:12.670Z,63.00
2017-08-30T03:26:44.728Z,63.10
2017-08-30T03:29:17.795Z,63.10
2017-08-30T03:31:50.850Z,63.30
2017-08-30T03:34:23.008Z,63.20
2017-08-30T04:23:48.049Z,64.20
2017-08-30T04:32:12.503Z,65.30
2017-08-30T05:05:05.222Z,65.80
2017-08-30T05:16:10.554Z,67.60
2017-08-30T05:29:46.204Z,66.60
2017-08-30T05:50:58.580Z,66.40
2017-08-30T06:17:56.442Z,66.80
2017-08-30T06:20:30.721Z,66.60
2017-08-30T06:23:11.776Z,66.00
2017-08-30T06:25:41.896Z,66.30
2017-08-30T06:28:10.061Z,66.40
2017-08-30T06:30:38.206Z,66.40
2017-08-30T06:33:06.477Z,66.50
2017-08-30T06:35:34.647Z,66.90
2017-08-30T06:38:02.833Z,66.70
2017-08-30T06:40:30.985Z,66.40
2017-08-30T06:42:59.127Z,66.10
2017-08-30T06:45:27.404Z,66.10
2017-08-30T06:47:55.571Z,66.50
2017-08-30T06:50:23.712Z,66.00
2017-08-30T06:52:51.892Z,66.80
2017-08-30T06:55:20.036Z,66.90
2017-08-30T06:57:48.324Z,66.00
2017-08-30T07:00:16.477Z,67.20
2017-08-30T07:02:44.685Z,65.20
2017-08-30T07:05:12.826Z,65.10
2017-08-30T07:07:40.967Z,64.80
2017-08-30T07:10:09.126Z,65.10
2017-08-30T07:12:37.263Z,65.10
2017-08-30T07:15:05.444Z,65.50
2017-08-30T07:17:46.148Z,64.40
2017-08-30T07:20:47.139Z,64.80
2017-08-30T07:26:18.191Z,64.80
2017-08-30T07:28:52.805Z,64.70
2017-08-30T07:34:01.255Z,63.70
2017-08-30T07:39:15.487Z,63.10
2017-08-30T07:41:47.784Z,62.60
2017-08-30T07:44:24.665Z,62.70
2017-08-30T07:49:40.612Z,61.50
2017-08-30T07:57:36.998Z,60.60
2017-08-30T08:00:12.073Z,58.50
2017-08-30T08:02:50.318Z,60.10
2017-08-30T08:08:03.207Z,59.80
2017-08-30T08:13:21.144Z,58.60
2017-08-30T08:15:58.392Z,58.40
2017-08-30T08:23:59.790Z,58.40
2017-08-30T08:26:34.257Z,56.90
2017-08-30T08:29:06.632Z,56.90
2017-08-30T08:31:40.238Z,57.70
2017-08-30T08:37:15.378Z,57.10
2017-08-30T08:42:33.065Z,57.00
2017-08-30T08:45:26.958Z,57.30
2017-08-30T08:47:58.180Z,57.00
2017-08-30T08:50:31.113Z,56.00
2017-08-30T08:53:03.105Z,55.00
2017-08-30T08:55:33.977Z,55.10
2017-08-30T08:58:05.023Z,54.10
2017-08-30T09:00:38.011Z,54.80
2017-08-30T09:03:08.818Z,54.80
2017-08-30T09:05:38.698Z,53.80
2017-08-30T09:08:16.504Z,52.70
2017-08-30T09:10:49.157Z,53.20
2017-08-30T09:13:20.001Z,53.60
2017-08-30T09:15:50.955Z,52.40
2017-08-30T09:18:21.804Z,52.50
2017-08-30T09:20:51.217Z,52.30
2017-08-30T09:23:22.206Z,51.20
2017-08-30T09:25:54.681Z,51.10
2017-08-30T09:28:26.205Z,50.60
2017-08-30T09:30:56.664Z,48.90
2017-08-30T09:33:26.338Z,50.20
2017-08-30T09:35:59.068Z,48.90
2017-08-30T09:38:29.450Z,48.00
2017-08-30T09:41:01.326Z,49.30
2017-08-30T09:43:31.644Z,47.50
2017-08-30T09:46:00.565Z,44.30
2017-08-30T09:48:32.545Z,44.80
2017-08-30T09:51:03.551Z,45.10
2017-08-30T09:53:33.840Z,44.10
2017-08-30T09:56:04.767Z,45.40
2017-08-30T09:58:35.965Z,44.80
2017-08-30T10:01:06.052Z,46.40
2017-08-30T10:03:34.574Z,45.80
2017-08-30T10:06:04.307Z,45.80
2017-08-30T10:08:37.067Z,44.40
2017-08-30T10:13:50.600Z,45.40
2017-08-30T10:18:59.997Z,45.20
2017-08-30T10:21:31.847Z,45.40
2017-08-30T10:24:04.910Z,45.40
2017-08-30T10:26:39.748Z,44.40
2017-08-30T10:29:14.307Z,44.70
2017-08-30T10:34:25.386Z,44.50
2017-08-30T10:37:02.262Z,44.00
2017-08-30T10:39:35.991Z,45.10
2017-08-30T10:50:19.930Z,44.80
2017-08-30T10:55:41.672Z,44.10
2017-08-30T10:58:26.003Z,45.00
2017-08-30T11:01:01.606Z,44.40
2017-08-30T11:03:42.554Z,44.90
2017-08-30T11:06:23.525Z,43.50
2017-08-30T11:19:58.773Z,43.90
2017-08-30T11:22:56.472Z,42.30
2017-08-30T11:43:19.638Z,42.50
2017-08-30T11:48:29.530Z,42.00
2017-08-30T11:51:05.776Z,42.70
2017-08-30T11:53:38.103Z,41.60
2017-08-30T11:56:14.249Z,42.80
2017-08-30T11:58:45.277Z,41.60
2017-08-30T12:01:15.533Z,42.90
2017-08-30T12:03:45.458Z,42.90
2017-08-30T12:06:15.680Z,42.10
2017-08-30T12:08:45.509Z,42.20
2017-08-30T12:11:16.051Z,41.60
2017-08-30T12:13:46.562Z,42.50
2017-08-30T12:16:17.091Z,43.10
2017-08-30T12:18:48.543Z,42.10
2017-08-30T12:21:20.417Z,41.10
2017-08-30T12:23:55.410Z,42.80
2017-08-30T12:26:26.241Z,43.00
2017-08-30T12:28:58.032Z,43.10
2017-08-30T12:31:31.309Z,43.30
2017-08-30T12:34:06.834Z,43.20
2017-08-30T12:36:44.044Z,42.70
2017-08-30T12:39:22.272Z,41.00
2017-08-30T12:41:54.762Z,41.90
2017-08-30T12:44:27.652Z,42.50
2017-08-30T12:46:58.298Z,41.90
2017-08-30T12:49:32.514Z,42.60
2017-08-30T12:52:04.198Z,39.60
2017-08-30T12:54:34.614Z,39.30
2017-08-30T12:57:04.053Z,40.00
2017-08-30T12:59:37.073Z,39.50
2017-08-30T13:04:45.434Z,39.40
2017-08-30T13:13:40.736Z,34.00
2017-08-30T13:16:14.595Z,35.60
2017-08-30T13:18:48.419Z,34.30
2017-08-30T13:21:22.462Z,36.40
2017-08-30T13:24:05.104Z,35.00
2017-08-30T13:26:36.156Z,34.20
2017-08-30T13:29:05.120Z,34.70
2017-08-30T13:31:33.304Z,34.70
2017-08-30T13:34:01.474Z,34.10
2017-08-30T13:36:30.189Z,34.90
2017-08-30T13:38:58.682Z,34.20
2017-08-30T13:41:26.832Z,34.30
2017-08-30T13:43:55.121Z,35.00
2017-08-30T13:46:23.302Z,34.90
2017-08-30T13:48:51.446Z,34.90
2017-08-30T13:51:19.625Z,34.70
2017-08-30T13:53:47.757Z,33.20
2017-08-30T13:56:17.310Z,33.30
2017-08-30T13:58:48.414Z,34.40
2017-08-30T14:01:20.151Z,35.10
2017-08-30T14:03:48.517Z,35.10
2017-08-30T14:06:16.643Z,35.50
2017-08-30T14:08:44.940Z,34.70
2017-08-30T14:11:13.090Z,35.10
2017-08-30T14:13:41.250Z,34.20
2017-08-30T14:16:09.409Z,35.10
2017-08-30T14:18:37.552Z,34.80
2017-08-30T14:21:05.829Z,35.60
2017-08-30T14:23:36.907Z,36.50
2017-08-30T14:26:07.570Z,35.70
2017-08-30T14:28:38.606Z,34.70
2017-08-30T14:31:09.727Z,34.60
2017-08-30T14:33:40.535Z,35.70
2017-08-30T14:36:13.794Z,36.20
2017-08-30T14:38:45.475Z,34.30
2017-08-30T14:41:15.037Z,35.40
2017-08-30T14:43:48.385Z,36.30
2017-08-30T14:46:23.464Z,35.30
2017-08-30T14:48:54.084Z,35.90
2017-08-30T14:51:23.837Z,35.00
2017-08-30T14:54:00.143Z,35.70
2017-08-30T14:56:32.641Z,36.70
2017-08-30T14:59:03.609Z,35.90
2017-08-30T15:01:34.387Z,36.10
2017-08-30T15:04:05.486Z,36.60
2017-08-30T15:06:35.805Z,36.50
2017-08-30T15:09:07.877Z,36.10
2017-08-30T15:11:37.471Z,35.90
2017-08-30T15:14:08.613Z,36.00
2017-08-30T15:16:38.935Z,37.60
2017-08-30T15:19:11.902Z,37.30
2017-08-30T15:21:42.476Z,36.90
2017-08-30T15:24:12.657Z,38.80
2017-08-30T15:26:42.615Z,37.80
2017-08-30T15:29:13.740Z,38.90
2017-08-30T15:31:44.624Z,39.50
2017-08-30T15:34:15.521Z,37.70
2017-08-30T15:36:45.570Z,38.70
2017-08-30T15:39:16.183Z,39.60
2017-08-30T15:41:46.897Z,39.80
2017-08-30T15:44:17.748Z,40.70
2017-08-30T15:46:48.161Z,39.30
2017-08-30T15:49:18.609Z,40.30
2017-08-30T15:51:49.802Z,40.10
2017-08-30T15:54:21.513Z,40.60
2017-08-30T15:56:51.551Z,40.90
2017-08-30T15:59:22.245Z,41.00
2017-08-30T16:01:52.845Z,42.00
2017-08-30T16:04:23.411Z,41.70
2017-08-30T16:06:53.667Z,41.50
2017-08-30T16:09:23.579Z,41.10
2017-08-30T16:11:54.432Z,41.10
2017-08-30T16:14:24.499Z,41.40
2017-08-30T16:16:54.146Z,42.40
2017-08-30T16:19:26.398Z,43.20
2017-08-30T16:21:56.342Z,43.60
2017-08-30T16:24:26.706Z,43.30
2017-08-30T16:26:59.003Z,44.80
2017-08-30T16:29:29.422Z,45.10
2017-08-30T20:27:56.680Z,56.70
2017-08-30T20:30:24.844Z,56.90
2017-08-30T20:32:53.034Z,57.20
2017-08-30T20:35:21.200Z,57.40
2017-08-30T20:37:49.370Z,58.10
2017-08-30T20:40:17.646Z,58.10
2017-08-30T20:42:45.851Z,58.30
2017-08-30T20:45:14.053Z,58.60
2017-08-30T20:47:44.472Z,58.50
2017-08-30T20:50:16.719Z,61.50
2017-08-30T20:52:48.856Z,64.60
2017-08-30T20:55:19.814Z,67.10
2017-08-30T20:57:50.224Z,67.80
2017-08-30T21:00:22.422Z,69.20
2017-08-30T21:02:53.832Z,72.20
2017-08-30T21:08:57.516Z,77.40
2017-08-30T21:11:27.972Z,80.00
2017-08-30T21:13:59.908Z,79.60
2017-08-30T21:16:31.645Z,80.00
2017-08-30T21:19:05.113Z,80.00
2017-08-30T21:21:39.363Z,79.20
2017-08-30T21:24:11.273Z,78.90
2017-08-30T21:40:23.647Z,77.90
2017-08-30T21:52:53.125Z,78.10
2017-08-30T22:03:19.749Z,79.00
2017-08-30T22:05:52.642Z,78.00
2017-08-30T22:08:24.104Z,78.60
2017-08-30T22:10:56.555Z,79.20
2017-08-30T22:13:28.140Z,78.80
2017-08-30T22:15:58.042Z,78.60
2017-08-30T22:18:27.549Z,79.10
2017-08-30T22:20:58.672Z,78.90
2017-08-30T22:23:30.366Z,79.30
2017-08-30T22:26:00.981Z,79.50
2017-08-30T22:28:33.265Z,79.10
2017-08-30T22:31:04.047Z,79.20
2017-08-30T22:33:33.716Z,78.30
2017-08-30T22:36:04.015Z,78.20
2017-08-30T22:38:33.422Z,78.00
2017-08-30T22:41:02.717Z,78.60
2017-08-30T22:43:32.542Z,79.20
2017-08-30T22:46:02.318Z,79.60
2017-08-30T22:48:31.929Z,78.90
2017-08-30T22:51:01.127Z,79.20
2017-08-30T22:53:29.624Z,79.70
2017-08-30T22:55:57.817Z,79.20
2017-08-30T22:58:26.102Z,79.60
2017-08-30T23:00:54.267Z,79.60
2017-08-30T23:03:22.496Z,79.90
2017-08-30T23:05:50.648Z,80.00
2017-08-30T23:08:18.803Z,80.40
2017-08-30T23:10:46.996Z,79.90
2017-08-30T23:13:15.162Z,80.10
2017-08-30T23:15:43.332Z,80.90
2017-08-30T23:18:11.510Z,81.30
2017-08-30T23:20:39.681Z,81.10
2017-08-30T23:23:08.010Z,80.50
2017-08-30T23:25:36.176Z,80.70
2017-08-30T23:28:04.385Z,80.90
2017-08-30T23:30:34.757Z,81.30
2017-08-30T23:33:02.899Z,81.30
2017-08-30T23:35:31.068Z,81.60
2017-08-30T23:37:59.625Z,81.20
2017-08-30T23:40:27.780Z,81.40
2017-08-30T23:42:56.876Z,80.90
2017-08-30T23:45:25.034Z,80.90
2017-08-30T23:47:53.224Z,80.60
2017-08-30T23:50:21.955Z,80.50
2017-08-30T23:52:50.111Z,80.20
2017-08-30T23:55:18.392Z,79.70
2017-08-30T23:57:47.312Z,79.70
